Spicer, Minnesota
Current Conditions -  °F | °C
As of 11:35 PM on Wednesday 22 Oct 2014 (Local Time) from KBDH Reporting Station
NA  
Wind Chill: 57°   Ceiling: NA
Heat Index: 57°   Visibility: 7mi
Dew Point: 54°   Wind: 0mph
Humidity: 88%   Direction: NA
Pressure: 29.98"   Gusts: NA
Location:  45.23°N, 94.94°W
Report Text: KBDH 230435Z AUTO 00000KT 7SM 14/12 A2998 RMK AO2 P0001
Loading
Personal Weather Stations






























Interactive Weather Map New forecast layout! Learn more

10-Day Weather Forecast

Advertisements
Track Severe Weather on mobile